createdAt,value
2017-12-11T00:00:06.428Z,96951.34
2017-12-11T00:02:33.945Z,96964.00
2017-12-11T00:05:01.402Z,96970.89
2017-12-11T00:07:28.922Z,96970.13
2017-12-11T00:09:56.421Z,96971.16
2017-12-11T00:12:23.896Z,96968.53
2017-12-11T00:14:51.326Z,96976.02
2017-12-11T00:17:18.787Z,96977.42
2017-12-11T00:19:46.253Z,96997.55
2017-12-11T00:22:13.786Z,96998.27
2017-12-11T00:24:41.367Z,97009.09
2017-12-11T00:27:08.876Z,97001.26
2017-12-11T00:29:36.637Z,97012.11
2017-12-11T00:32:04.350Z,97016.63
2017-12-11T00:34:31.828Z,97009.62
2017-12-11T00:36:59.329Z,97002.52
2017-12-11T00:39:26.824Z,97002.41
2017-12-11T00:41:54.322Z,97002.75
2017-12-11T00:44:26.753Z,96986.79
2017-12-11T00:46:54.421Z,96983.34
2017-12-11T00:49:21.962Z,96980.67
2017-12-11T00:51:49.396Z,96964.22
2017-12-11T00:54:17.140Z,96961.60
2017-12-11T00:56:44.575Z,96955.08
2017-12-11T00:59:12.035Z,96960.23
2017-12-11T01:01:39.694Z,96953.94
2017-12-11T01:04:21.431Z,96954.36
2017-12-11T01:06:48.876Z,96965.91
2017-12-11T01:09:16.322Z,96978.84
2017-12-11T01:11:43.801Z,96992.94
2017-12-11T01:14:11.341Z,96998.70
2017-12-11T01:16:38.861Z,97001.18
2017-12-11T01:19:06.343Z,97013.41
2017-12-11T01:21:33.807Z,97000.14
2017-12-11T01:24:01.330Z,97016.88
2017-12-11T01:26:28.767Z,97023.80
2017-12-11T01:28:56.322Z,97042.51
2017-12-11T01:31:23.986Z,97044.81
2017-12-11T01:33:51.463Z,97064.23
2017-12-11T01:36:18.912Z,97065.78
2017-12-11T01:38:46.424Z,97069.21
2017-12-11T01:41:13.963Z,97068.35
2017-12-11T01:43:41.525Z,97082.61
2017-12-11T01:46:09.193Z,97094.13
2017-12-11T01:48:36.672Z,97089.98
2017-12-11T01:51:04.130Z,97084.28
2017-12-11T01:53:31.777Z,97093.06
2017-12-11T01:55:59.281Z,97097.50
2017-12-11T01:58:26.745Z,97098.07
2017-12-11T02:00:54.208Z,97102.28
2017-12-11T02:03:21.738Z,97113.39
2017-12-11T02:05:49.186Z,97104.83
2017-12-11T02:08:16.657Z,97107.97
2017-12-11T02:10:44.363Z,97105.59
2017-12-11T02:13:26.022Z,97110.33
2017-12-11T02:15:53.495Z,97099.23
2017-12-11T02:18:20.991Z,97095.76
2017-12-11T02:20:48.425Z,97083.42
2017-12-11T02:26:08.612Z,97087.15
2017-12-11T02:28:37.012Z,97094.30
2017-12-11T02:31:05.146Z,97073.57
2017-12-11T02:33:33.260Z,97085.61
2017-12-11T02:36:00.754Z,97082.09
2017-12-11T02:38:28.189Z,97076.89
2017-12-11T02:40:55.675Z,97074.84
2017-12-11T02:43:23.127Z,97086.16
2017-12-11T02:45:50.585Z,97075.52
2017-12-11T02:48:18.107Z,97075.70
2017-12-11T02:50:45.570Z,97078.20
2017-12-11T02:53:28.029Z,97077.36
2017-12-11T02:55:55.443Z,97074.25
2017-12-11T02:58:22.905Z,97082.55
2017-12-11T03:00:50.469Z,97080.95
2017-12-11T03:03:18.182Z,97092.81
2017-12-11T03:05:45.856Z,97096.87
2017-12-11T03:08:13.501Z,97104.39
2017-12-11T03:10:40.992Z,97118.16
2017-12-11T03:13:08.478Z,97130.75
2017-12-11T03:15:35.995Z,97131.73
2017-12-11T03:18:03.753Z,97140.63
2017-12-11T03:20:31.225Z,97148.45
2017-12-11T03:22:59.405Z,97156.28
2017-12-11T03:25:26.886Z,97158.72
2017-12-11T03:27:54.386Z,97152.49
2017-12-11T03:30:21.825Z,97147.73
2017-12-11T03:32:49.361Z,97164.93
2017-12-11T03:35:16.807Z,97170.27
2017-12-11T03:37:44.677Z,97178.17
2017-12-11T03:40:12.113Z,97194.59
2017-12-11T03:42:39.578Z,97186.97
2017-12-11T03:45:07.147Z,97196.80
2017-12-11T03:47:34.591Z,97199.09
2017-12-11T03:50:02.079Z,97194.81
2017-12-11T03:52:29.543Z,97200.52
2017-12-11T03:54:57.235Z,97207.92
2017-12-11T03:57:24.698Z,97216.70
2017-12-11T03:59:52.201Z,97230.08
2017-12-11T04:02:19.633Z,97222.23
2017-12-11T04:04:56.729Z,97226.77
2017-12-11T04:07:24.186Z,97232.23
2017-12-11T04:09:51.624Z,97244.93
2017-12-11T04:12:19.064Z,97257.95
2017-12-11T04:17:53.109Z,97266.19
2017-12-11T04:20:20.565Z,97275.26
2017-12-11T04:22:48.081Z,97280.47
2017-12-11T04:25:15.562Z,97279.74
2017-12-11T04:27:43.092Z,97289.59
2017-12-11T04:30:10.609Z,97293.33
2017-12-11T04:32:38.148Z,97297.56
2017-12-11T04:35:05.574Z,97290.98
2017-12-11T04:37:33.252Z,97305.42
2017-12-11T04:40:00.771Z,97312.17
2017-12-11T04:42:28.216Z,97321.11
2017-12-11T04:44:55.811Z,97331.33
2017-12-11T04:47:24.239Z,97330.86
2017-12-11T04:49:52.328Z,97326.30
2017-12-11T04:52:20.531Z,97342.46
2017-12-11T04:57:41.177Z,97345.52
2017-12-11T05:00:09.339Z,97342.94
2017-12-11T05:02:36.838Z,97336.64
2017-12-11T05:05:04.984Z,97347.42
2017-12-11T05:07:34.474Z,97341.69
2017-12-11T05:10:02.791Z,97347.62
2017-12-11T05:12:30.333Z,97357.67
2017-12-11T05:15:21.701Z,97355.53
2017-12-11T05:17:49.948Z,97367.27
2017-12-11T05:20:17.487Z,97366.95
2017-12-11T05:22:45.558Z,97382.22
2017-12-11T05:25:15.043Z,97388.77
2017-12-11T05:27:42.495Z,97388.58
2017-12-11T05:30:10.476Z,97396.99
2017-12-11T05:32:38.856Z,97407.91
2017-12-11T05:35:06.303Z,97409.39
2017-12-11T05:37:34.130Z,97412.23
2017-12-11T05:40:01.648Z,97414.11
2017-12-11T05:42:29.147Z,97408.63
2017-12-11T05:44:56.635Z,97414.44
2017-12-11T05:47:24.140Z,97396.53
2017-12-11T05:49:51.754Z,97390.80
2017-12-11T05:52:19.192Z,97399.27
2017-12-11T05:54:46.666Z,97396.27
2017-12-11T05:57:14.151Z,97403.85
2017-12-11T05:59:41.625Z,97399.41
2017-12-11T06:02:09.094Z,97400.72
2017-12-11T06:04:36.614Z,97396.11
2017-12-11T06:07:04.172Z,97400.66
2017-12-11T06:09:31.620Z,97412.09
2017-12-11T06:11:59.149Z,97419.08
2017-12-11T06:14:26.917Z,97430.81
2017-12-11T06:16:54.402Z,97441.03
2017-12-11T06:19:21.907Z,97453.36
2017-12-11T06:21:49.427Z,97450.80
2017-12-11T06:24:21.890Z,97446.97
2017-12-11T06:26:49.365Z,97436.81
2017-12-11T06:29:16.820Z,97427.36
2017-12-11T06:31:44.266Z,97416.64
2017-12-11T06:34:11.728Z,97408.27
2017-12-11T06:36:39.190Z,97396.63
2017-12-11T06:39:06.682Z,97418.45
2017-12-11T06:41:34.117Z,97424.09
2017-12-11T06:44:01.584Z,97435.81
2017-12-11T06:46:29.047Z,97447.02
2017-12-11T06:48:56.495Z,97447.34
2017-12-11T06:51:23.987Z,97454.05
2017-12-11T06:53:51.435Z,97453.42
2017-12-11T06:56:19.095Z,97457.61
2017-12-11T06:58:46.579Z,97462.25
2017-12-11T07:01:14.039Z,97465.22
2017-12-11T07:03:41.574Z,97467.95
2017-12-11T07:06:09.076Z,97471.58
2017-12-11T07:08:36.596Z,97478.59
2017-12-11T07:11:04.060Z,97482.31
2017-12-11T07:13:36.496Z,97477.99
2017-12-11T07:16:03.969Z,97471.77
2017-12-11T07:18:31.468Z,97470.84
2017-12-11T07:20:58.964Z,97473.36
2017-12-11T07:23:26.505Z,97485.56
2017-12-11T07:25:53.961Z,97487.34
2017-12-11T07:28:21.470Z,97488.20
2017-12-11T07:30:48.899Z,97483.19
2017-12-11T07:33:16.412Z,97495.81
2017-12-11T07:35:43.867Z,97483.30
2017-12-11T07:38:11.468Z,97477.70
2017-12-11T07:40:38.961Z,97474.06
2017-12-11T07:43:06.398Z,97473.08
2017-12-11T07:45:33.856Z,97458.84
2017-12-11T07:48:01.306Z,97472.19
2017-12-11T07:50:28.751Z,97481.98
2017-12-11T07:52:56.193Z,97488.11
2017-12-11T07:55:23.668Z,97481.61
2017-12-11T07:57:51.115Z,97493.87
2017-12-11T08:00:18.584Z,97484.88
2017-12-11T08:02:46.064Z,97471.45
2017-12-11T08:05:13.504Z,97481.02
2017-12-11T08:07:40.930Z,97496.84
2017-12-11T08:10:08.410Z,97513.48
2017-12-11T08:12:35.870Z,97516.95
2017-12-11T08:15:08.334Z,97511.25
2017-12-11T08:17:35.806Z,97504.00
2017-12-11T08:20:03.282Z,97507.79
2017-12-11T08:22:30.796Z,97510.00
2017-12-11T08:24:58.421Z,97517.34
2017-12-11T08:27:25.937Z,97510.52
2017-12-11T08:29:53.421Z,97512.56
2017-12-11T08:32:20.900Z,97515.70
2017-12-11T08:34:48.439Z,97510.06
2017-12-11T08:37:15.938Z,97510.16
2017-12-11T08:39:43.416Z,97505.41
2017-12-11T08:42:10.924Z,97504.16
2017-12-11T08:44:43.530Z,97492.92
2017-12-11T08:47:11.085Z,97497.87
2017-12-11T08:49:38.575Z,97508.32
2017-12-11T08:52:06.217Z,97517.95
2017-12-11T08:54:33.758Z,97520.19
2017-12-11T08:57:01.235Z,97518.29
2017-12-11T08:59:28.785Z,97510.94
2017-12-11T09:01:56.241Z,97519.67
2017-12-11T09:04:23.748Z,97518.52
2017-12-11T09:06:51.616Z,97522.31
2017-12-11T09:09:19.124Z,97519.02
2017-12-11T09:11:46.591Z,97524.77
2017-12-11T09:14:14.103Z,97523.77
2017-12-11T09:16:41.590Z,97522.78
2017-12-11T09:19:09.349Z,97514.14
2017-12-11T09:21:36.853Z,97506.63
2017-12-11T09:24:04.391Z,97505.73
2017-12-11T09:26:31.821Z,97502.24
2017-12-11T09:28:59.323Z,97505.18
2017-12-11T09:31:26.803Z,97498.48
2017-12-11T09:33:54.325Z,97487.31
2017-12-11T09:36:21.825Z,97488.30
2017-12-11T09:38:49.342Z,97472.83
2017-12-11T09:41:16.828Z,97470.33
2017-12-11T09:43:44.291Z,97474.72
2017-12-11T09:46:11.760Z,97480.45
2017-12-11T09:48:39.275Z,97474.78
2017-12-11T09:51:09.174Z,97480.98
2017-12-11T09:53:36.767Z,97477.98
2017-12-11T09:56:04.244Z,97475.41
2017-12-11T09:58:31.767Z,97481.61
2017-12-11T10:00:59.224Z,97479.03
2017-12-11T10:03:27.489Z,97473.98
2017-12-11T10:05:55.761Z,97483.95
2017-12-11T10:08:23.230Z,97486.52
2017-12-11T10:10:51.570Z,97474.09
2017-12-11T10:13:19.608Z,97463.53
2017-12-11T10:15:49.176Z,97462.90
2017-12-11T10:18:16.692Z,97457.23
2017-12-11T10:20:44.160Z,97456.47
2017-12-11T10:23:11.625Z,97446.11
2017-12-11T10:25:39.084Z,97440.07
2017-12-11T10:28:06.562Z,97438.92
2017-12-11T10:30:34.061Z,97431.16
2017-12-11T10:33:01.571Z,97412.30
2017-12-11T10:35:29.102Z,97413.09
2017-12-11T10:37:56.583Z,97406.16
2017-12-11T10:40:24.060Z,97416.16
2017-12-11T10:42:51.503Z,97417.70
2017-12-11T10:45:18.988Z,97407.70
2017-12-11T10:47:46.452Z,97387.02
2017-12-11T10:50:13.897Z,97395.39
2017-12-11T10:52:41.356Z,97395.13
2017-12-11T10:55:08.848Z,97397.14
2017-12-11T10:57:36.296Z,97394.73
2017-12-11T11:00:03.805Z,97402.65
2017-12-11T11:02:31.278Z,97402.12
2017-12-11T11:04:58.730Z,97396.88
2017-12-11T11:07:26.190Z,97386.28
2017-12-11T11:09:53.634Z,97398.75
2017-12-11T11:12:21.139Z,97403.80
2017-12-11T11:14:48.612Z,97387.02
2017-12-11T11:17:16.060Z,97386.80
2017-12-11T11:19:43.545Z,97384.84
2017-12-11T11:22:10.987Z,97388.73
2017-12-11T11:24:38.474Z,97393.46
2017-12-11T11:27:06.689Z,97375.59
2017-12-11T11:29:34.189Z,97385.38
2017-12-11T11:32:01.793Z,97372.39
2017-12-11T11:34:29.546Z,97356.11
2017-12-11T11:36:57.043Z,97346.36
2017-12-11T11:39:24.500Z,97343.55
2017-12-11T11:41:51.982Z,97339.14
2017-12-11T11:44:19.474Z,97322.26
2017-12-11T11:46:46.925Z,97312.77
2017-12-11T11:49:14.435Z,97306.85
2017-12-11T11:51:41.978Z,97311.19
2017-12-11T11:54:09.525Z,97302.56
2017-12-11T11:56:37.016Z,97297.53
2017-12-11T11:59:04.488Z,97292.24
2017-12-11T12:01:31.949Z,97287.13
2017-12-11T12:03:59.497Z,97280.13
2017-12-11T12:06:26.928Z,97269.34
2017-12-11T12:08:54.359Z,97266.00
2017-12-11T12:11:21.801Z,97255.00
2017-12-11T12:13:49.290Z,97255.67
2017-12-11T12:16:16.796Z,97251.66
2017-12-11T12:18:44.286Z,97254.69
2017-12-11T12:21:11.798Z,97241.91
2017-12-11T12:26:51.008Z,97248.45
2017-12-11T12:29:18.435Z,97244.83
2017-12-11T12:31:45.994Z,97237.64
2017-12-11T12:34:13.472Z,97236.04
2017-12-11T12:36:40.964Z,97240.33
2017-12-11T12:39:08.468Z,97231.63
2017-12-11T12:41:35.948Z,97217.56
2017-12-11T12:44:03.760Z,97215.91
2017-12-11T12:46:31.304Z,97211.02
2017-12-11T12:48:58.817Z,97198.52
2017-12-11T12:51:26.271Z,97181.75
2017-12-11T12:53:53.960Z,97174.76
2017-12-11T12:56:21.435Z,97172.73
2017-12-11T12:58:48.971Z,97175.38
2017-12-11T13:01:16.416Z,97186.52
2017-12-11T13:03:43.907Z,97181.80
2017-12-11T13:06:11.342Z,97180.71
2017-12-11T13:08:39.085Z,97170.91
2017-12-11T13:11:06.488Z,97158.21
2017-12-11T13:13:33.936Z,97157.81
2017-12-11T13:16:01.400Z,97157.81
2017-12-11T13:18:28.978Z,97154.78
2017-12-11T13:20:56.714Z,97147.79
2017-12-11T13:23:24.177Z,97138.29
2017-12-11T13:25:51.663Z,97140.03
2017-12-11T13:28:19.136Z,97145.36
2017-12-11T13:30:46.580Z,97156.27
2017-12-11T13:33:14.143Z,97154.16
2017-12-11T13:35:41.593Z,97152.42
2017-12-11T13:38:09.381Z,97146.35
2017-12-11T13:40:36.893Z,97140.48
2017-12-11T13:43:04.405Z,97135.65
2017-12-11T13:45:31.894Z,97111.89
2017-12-11T13:47:59.434Z,97121.16
2017-12-11T13:50:26.991Z,97109.89
2017-12-11T13:52:55.432Z,97105.98
2017-12-11T13:55:22.893Z,97115.32
2017-12-11T13:57:50.399Z,97109.14
2017-12-11T14:00:17.912Z,97103.16
2017-12-11T14:02:45.468Z,97083.47
2017-12-11T14:05:12.942Z,97095.57
2017-12-11T14:07:40.402Z,97085.80
2017-12-11T14:10:07.856Z,97080.41
2017-12-11T14:12:35.345Z,97071.88
2017-12-11T14:15:02.866Z,97068.82
2017-12-11T14:17:30.348Z,97055.00
2017-12-11T14:19:57.859Z,97062.92
2017-12-11T14:22:25.525Z,97046.73
2017-12-11T14:24:52.977Z,97050.14
2017-12-11T14:27:20.512Z,97044.44
2017-12-11T14:29:47.997Z,97045.77
2017-12-11T14:32:15.512Z,97045.07
2017-12-11T14:34:42.969Z,97047.08
2017-12-11T14:37:10.451Z,97046.86
2017-12-11T14:39:37.903Z,97049.72
2017-12-11T14:42:05.400Z,97054.76
2017-12-11T14:44:42.554Z,97055.17
2017-12-11T14:47:10.008Z,97054.32
2017-12-11T14:49:37.440Z,97049.38
2017-12-11T14:52:04.952Z,97043.66
2017-12-11T14:57:25.262Z,97058.19
2017-12-11T14:59:52.736Z,97051.22
2017-12-11T15:02:20.256Z,97061.27
2017-12-11T15:04:47.695Z,97074.47
2017-12-11T15:07:15.231Z,97079.51
2017-12-11T15:09:42.716Z,97080.48
2017-12-11T15:12:10.225Z,97089.78
2017-12-11T15:14:37.820Z,97095.82
2017-12-11T15:17:05.660Z,97100.08
2017-12-11T15:19:33.367Z,97096.12
2017-12-11T15:22:00.853Z,97090.83
2017-12-11T15:24:28.386Z,97108.73
2017-12-11T15:26:55.889Z,97101.62
2017-12-11T15:29:23.403Z,97084.91
2017-12-11T15:31:51.072Z,97078.31
2017-12-11T15:34:18.586Z,97078.53
2017-12-11T15:36:46.052Z,97076.86
2017-12-11T15:39:13.788Z,97073.64
2017-12-11T15:41:41.275Z,97071.69
2017-12-11T15:44:08.750Z,97073.59
2017-12-11T15:46:36.219Z,97065.03
2017-12-11T15:49:03.805Z,97070.44
2017-12-11T15:51:31.294Z,97074.94
2017-12-11T15:53:58.855Z,97080.39
2017-12-11T15:56:26.349Z,97080.95
2017-12-11T15:58:53.876Z,97081.20
2017-12-11T16:01:21.410Z,97083.70
2017-12-11T16:03:48.895Z,97096.16
2017-12-11T16:06:16.380Z,97092.59
2017-12-11T16:08:43.874Z,97098.00
2017-12-11T16:11:11.354Z,97108.78
2017-12-11T16:13:43.900Z,97113.32
2017-12-11T16:16:11.698Z,97113.61
2017-12-11T16:18:39.546Z,97120.56
2017-12-11T16:21:07.053Z,97127.85
2017-12-11T16:23:39.960Z,97126.83
2017-12-11T16:26:07.509Z,97133.67
2017-12-11T16:28:35.059Z,97134.95
2017-12-11T16:31:02.541Z,97143.47
2017-12-11T16:33:30.236Z,97151.13
2017-12-11T16:35:57.755Z,97146.70
2017-12-11T16:38:25.382Z,97150.16
2017-12-11T16:40:53.096Z,97162.56
2017-12-11T16:43:20.550Z,97166.64
2017-12-11T16:45:48.093Z,97167.91
2017-12-11T16:48:15.604Z,97166.54
2017-12-11T16:50:43.089Z,97174.27
2017-12-11T16:53:10.592Z,97183.17
2017-12-11T16:55:38.104Z,97190.02
2017-12-11T16:58:05.606Z,97192.02
2017-12-11T17:00:33.073Z,97196.27
2017-12-11T17:03:00.608Z,97194.38
2017-12-11T17:05:28.103Z,97194.61
2017-12-11T17:07:55.622Z,97200.98
2017-12-11T17:10:23.296Z,97200.86
2017-12-11T17:12:50.870Z,97198.78
2017-12-11T17:15:18.354Z,97198.56
2017-12-11T17:17:45.849Z,97214.64
2017-12-11T17:20:13.373Z,97225.20
2017-12-11T17:22:40.884Z,97224.52
2017-12-11T17:25:08.431Z,97221.98
2017-12-11T17:27:35.912Z,97224.78
2017-12-11T17:30:03.419Z,97222.25
2017-12-11T17:32:31.819Z,97220.92
2017-12-11T17:34:59.336Z,97226.53
2017-12-11T17:37:26.840Z,97229.48
2017-12-11T17:39:54.356Z,97235.90
2017-12-11T17:42:21.861Z,97236.23
2017-12-11T17:45:03.708Z,97229.82
2017-12-11T17:47:31.220Z,97225.27
2017-12-11T17:49:59.046Z,97235.79
2017-12-11T17:52:26.775Z,97235.79
2017-12-11T17:54:54.318Z,97241.36
2017-12-11T17:57:21.854Z,97241.98
2017-12-11T17:59:49.485Z,97237.17
2017-12-11T18:02:16.973Z,97233.08
2017-12-11T18:04:44.547Z,97232.21
2017-12-11T18:07:12.070Z,97237.61
2017-12-11T18:09:39.575Z,97233.59
2017-12-11T18:12:07.173Z,97230.84
2017-12-11T18:14:48.994Z,97234.78
2017-12-11T18:17:16.645Z,97233.13
2017-12-11T18:19:44.161Z,97234.92
2017-12-11T18:22:11.716Z,97229.28
2017-12-11T18:24:39.271Z,97223.99
2017-12-11T18:27:07.012Z,97213.48
2017-12-11T18:29:34.748Z,97216.07
2017-12-11T18:32:02.234Z,97219.19
2017-12-11T18:34:29.740Z,97231.13
2017-12-11T18:36:57.242Z,97247.20
2017-12-11T18:39:24.779Z,97246.67
2017-12-11T18:41:52.282Z,97250.13
2017-12-11T18:44:20.145Z,97262.71
2017-12-11T18:46:47.626Z,97248.02
2017-12-11T18:49:15.146Z,97242.59
2017-12-11T18:51:42.614Z,97246.47
2017-12-11T18:57:03.563Z,97246.06
2017-12-11T18:59:31.038Z,97261.94
2017-12-11T19:01:58.581Z,97271.13
2017-12-11T19:04:26.029Z,97270.66
2017-12-11T19:06:53.627Z,97264.90
2017-12-11T19:09:21.077Z,97273.59
2017-12-11T19:11:48.588Z,97270.60
2017-12-11T19:14:16.138Z,97274.45
2017-12-11T19:16:43.683Z,97272.62
2017-12-11T19:19:11.193Z,97258.87
2017-12-11T19:21:38.687Z,97258.19
2017-12-11T19:24:06.214Z,97254.89
2017-12-11T19:26:33.685Z,97253.77
2017-12-11T19:29:01.261Z,97262.48
2017-12-11T19:31:28.784Z,97264.55
2017-12-11T19:33:56.898Z,97258.13
2017-12-11T19:36:24.465Z,97252.31
2017-12-11T19:38:51.897Z,97249.36
2017-12-11T19:41:19.677Z,97253.16
2017-12-11T19:46:40.410Z,97243.12
2017-12-11T19:49:07.897Z,97250.88
2017-12-11T19:51:35.390Z,97255.45
2017-12-11T19:54:09.105Z,97267.83
2017-12-11T19:56:36.718Z,97271.19
2017-12-11T19:59:04.207Z,97274.64
2017-12-11T20:01:31.783Z,97275.84
2017-12-11T20:03:59.508Z,97285.31
2017-12-11T20:06:26.991Z,97291.19
2017-12-11T20:08:54.533Z,97289.11
2017-12-11T20:11:22.108Z,97300.05
2017-12-11T20:13:49.633Z,97307.28
2017-12-11T20:16:17.140Z,97300.72
2017-12-11T20:18:44.681Z,97311.08
2017-12-11T20:21:12.185Z,97311.25
2017-12-11T20:23:39.825Z,97329.59
2017-12-11T20:26:07.349Z,97329.81
2017-12-11T20:28:34.842Z,97340.22
2017-12-11T20:31:02.380Z,97352.62
2017-12-11T20:33:29.868Z,97353.50
2017-12-11T20:35:57.393Z,97345.91
2017-12-11T20:38:24.925Z,97357.98
2017-12-11T20:40:52.374Z,97349.12
2017-12-11T20:43:19.839Z,97351.95
2017-12-11T20:45:47.720Z,97354.23
2017-12-11T20:48:15.371Z,97357.52
2017-12-11T20:50:43.354Z,97358.89
2017-12-11T20:53:10.917Z,97357.98
2017-12-11T20:55:38.658Z,97355.97
2017-12-11T20:58:06.202Z,97357.73
2017-12-11T21:00:33.724Z,97367.18
2017-12-11T21:03:01.413Z,97361.72
2017-12-11T21:05:30.170Z,97365.16
2017-12-11T21:07:57.729Z,97373.09
2017-12-11T21:10:25.222Z,97370.78
2017-12-11T21:12:52.956Z,97372.80
2017-12-11T21:15:25.426Z,97373.31
2017-12-11T21:17:52.980Z,97379.92
2017-12-11T21:20:20.450Z,97386.20
2017-12-11T21:22:47.964Z,97372.29
2017-12-11T21:25:20.553Z,97369.05
2017-12-11T21:27:48.113Z,97371.92
2017-12-11T21:30:15.566Z,97376.66
2017-12-11T21:32:43.367Z,97378.31
2017-12-11T21:35:10.856Z,97370.44
2017-12-11T21:37:38.332Z,97378.03
2017-12-11T21:40:05.903Z,97372.56
2017-12-11T21:42:33.374Z,97376.76
2017-12-11T21:45:00.889Z,97376.19
2017-12-11T21:47:28.422Z,97385.84
2017-12-11T21:49:55.975Z,97383.73
2017-12-11T21:52:23.401Z,97404.31
2017-12-11T21:55:09.628Z,97394.23
2017-12-11T21:57:37.054Z,97402.76
2017-12-11T22:00:04.567Z,97410.41
2017-12-11T22:02:32.097Z,97417.69
2017-12-11T22:04:59.575Z,97423.13
2017-12-11T22:07:27.049Z,97435.64
2017-12-11T22:09:54.519Z,97454.98
2017-12-11T22:12:21.996Z,97463.01
2017-12-11T22:14:49.434Z,97468.35
2017-12-11T22:17:16.910Z,97487.73
2017-12-11T22:19:44.437Z,97486.23
2017-12-11T22:22:11.883Z,97480.35
2017-12-11T22:24:39.370Z,97487.48
2017-12-11T22:27:06.897Z,97491.80
2017-12-11T22:29:34.384Z,97489.50
2017-12-11T22:32:01.882Z,97488.64
2017-12-11T22:34:29.340Z,97490.06
2017-12-11T22:36:56.859Z,97495.30
2017-12-11T22:39:24.313Z,97495.93
2017-12-11T22:41:52.598Z,97500.25
2017-12-11T22:44:20.080Z,97497.09
2017-12-11T22:46:47.551Z,97490.36
2017-12-11T22:49:15.032Z,97495.60
2017-12-11T22:51:42.488Z,97493.34
2017-12-11T22:54:09.949Z,97494.57
2017-12-11T22:56:37.361Z,97492.50
2017-12-11T22:59:04.868Z,97497.92
2017-12-11T23:01:32.298Z,97501.44
2017-12-11T23:03:59.772Z,97512.48
2017-12-11T23:06:27.239Z,97513.22
2017-12-11T23:08:54.681Z,97515.98
2017-12-11T23:11:22.137Z,97518.02
2017-12-11T23:13:49.681Z,97504.25
2017-12-11T23:16:17.227Z,97493.17
2017-12-11T23:18:44.658Z,97511.11
2017-12-11T23:21:12.124Z,97526.23
2017-12-11T23:23:39.621Z,97529.27
2017-12-11T23:26:07.088Z,97521.63
2017-12-11T23:28:34.543Z,97545.98
2017-12-11T23:31:02.050Z,97541.68
2017-12-11T23:33:29.833Z,97543.28
2017-12-11T23:35:57.321Z,97528.03
2017-12-11T23:38:24.776Z,97530.87
2017-12-11T23:40:52.325Z,97538.33
2017-12-11T23:46:12.123Z,97529.52
2017-12-11T23:48:39.665Z,97518.21
2017-12-11T23:51:07.210Z,97536.14
2017-12-11T23:53:35.610Z,97533.75
2017-12-11T23:56:03.118Z,97537.88
2017-12-11T23:58:30.631Z,97537.94
